Ryoho Maru No.2 — JD2964 — position and weather

sailwx.info

Track history (hours):
 
Tides and Currents Weather Stations Pressure Air Temp Water Temp Dewpoint Dewpoint Depression Visibility Wind Speed Wind Dir Waves Ship Positions

Ryoho Maru No.2

Last reported at 2017-May-24 10:19 UTC. Time now 2017-May-27 15:45 UTC.
Position N 34°52' E 139°49'.

Length 57 m; draft 4 m.

Type: Tanker. MMSI: 431001062.

Date/timePositionNaut miles runAvg speedWind from/ knotsBaromVisibWave heightAir tempDewpointWater temp
2017-May-24 10:19N 34°52' E 139°49'3 9.7
2017-May-24 09:58N 34°55' E 139°46'4 9.5
2017-May-24 09:30N 34°59' E 139°44'5 9.7
2017-May-24 09:00N 35°04' E 139°45'5 9.4
2017-May-24 08:30N 35°09' E 139°46'5 9.3
2017-May-24 08:00N 35°13' E 139°46'5 9.2
2017-May-24 07:31N 35°18' E 139°44'4 8.7
2017-May-24 07:00N 35°22' E 139°43'4 8.5
2017-May-24 06:31N 35°25' E 139°45'5 9.2
2017-May-24 06:00N 35°28' E 139°49'4 8.3
2017-May-24 05:30N 35°29' E 139°54'4 8.6
2017-May-24 05:00N 35°29' E 139°60'2 0.3
2017-May-23 22:51N 35°28' E 140°01'1 3.5
2017-May-23 22:29N 35°29' E 139°60'0 0.1
2017-May-23 21:03N 35°29' E 139°60'0 0.0
2017-May-23 20:36N 35°29' E 139°60'0 0.0
2017-May-23 20:12N 35°29' E 139°60'0 0.0
2017-May-23 19:36N 35°29' E 139°60'0 0.1
2017-May-23 19:30N 35°29' E 139°60'0 0.0
2017-May-23 18:54N 35°29' E 139°60'0 0.0
2017-May-23 18:30N 35°29' E 139°60'0 0.0
2017-May-23 17:45N 35°29' E 139°60'0 0.0
2017-May-23 17:24N 35°29' E 139°60'0 0.0
2017-May-23 16:57N 35°29' E 139°60'0 0.0
2017-May-23 16:27N 35°29' E 139°60'0 0.0
2017-May-23 15:57N 35°29' E 139°60'0 0.0
2017-May-23 15:15N 35°29' E 139°60'0 0.0
2017-May-23 15:00N 35°29' E 139°60'0 0.1
2017-May-23 14:15N 35°29' E 139°60'0 0.1
2017-May-23 13:30N 35°29' E 139°60'0 0.0
2017-May-23 13:00N 35°29' E 139°60'0 0.0
2017-May-23 12:00N 35°29' E 139°60'0 0.0
2017-May-23 10:54N 35°29' E 139°60'0 0.0
2017-May-23 09:51N 35°29' E 139°60'0 0.0
2017-May-23 09:30N 35°29' E 139°60'0 0.1
2017-May-23 08:39N 35°29' E 139°60'0 0.0
2017-May-23 08:09N 35°29' E 139°60'0 0.0
2017-May-23 07:57N 35°29' E 139°60'0 0.0
2017-May-23 07:27N 35°29' E 139°60'0 0.0
2017-May-23 06:57N 35°29' E 139°60'0 0.0
2017-May-23 05:51N 35°29' E 139°60'0 0.0
2017-May-23 05:30N 35°29' E 139°60'0 0.0
2017-May-23 04:27N 35°29' E 139°60'0 0.0
2017-May-23 03:57N 35°29' E 139°60'0 0.1
2017-May-23 03:31N 35°29' E 139°60'510.4
2017-May-23 03:01N 35°29' E 139°53'510.9
2017-May-23 02:30N 35°30' E 139°47'2 3.2
2017-May-23 01:57N 35°32' E 139°45'0 0.0
2017-May-23 01:30N 35°32' E 139°45'0 0.0
2017-May-23 01:00N 35°32' E 139°45'0 0.0
2017-May-23 00:30N 35°32' E 139°45'0 0.0
2017-May-23 00:00N 35°32' E 139°45'1 1.1
2017-May-22 23:30N 35°31' E 139°46'2 4.1
2017-May-22 23:00N 35°29' E 139°47'0 0.0
2017-May-22 22:30N 35°29' E 139°47'0 0.1
2017-May-22 22:00N 35°29' E 139°47'0 0.0
2017-May-22 21:30N 35°29' E 139°47'0 0.0
2017-May-22 20:57N 35°29' E 139°47'1 3.0
2017-May-22 20:30N 35°30' E 139°45'0 0.1
2017-May-22 19:59N 35°30' E 139°45'0 0.0
2017-May-22 19:26N 35°30' E 139°45'0 0.0
2017-May-22 18:59N 35°30' E 139°45'0 0.0
2017-May-22 18:29N 35°30' E 139°45'0 0.0
2017-May-22 17:59N 35°30' E 139°45'0 0.0
2017-May-22 17:26N 35°30' E 139°45'0 0.0
2017-May-22 16:53N 35°30' E 139°45'0 0.0
2017-May-22 16:23N 35°30' E 139°45'0 0.0
2017-May-22 15:53N 35°30' E 139°45'0 0.0
2017-May-22 15:29N 35°30' E 139°45'0 0.0
2017-May-22 14:59N 35°30' E 139°45'0 0.0
2017-May-22 13:59N 35°30' E 139°45'0 0.0
2017-May-22 13:26N 35°30' E 139°45'0 0.0
2017-May-22 12:59N 35°30' E 139°45'0 0.0
2017-May-22 12:29N 35°30' E 139°45'0 0.0
2017-May-22 11:59N 35°30' E 139°45'0 0.0
2017-May-22 11:29N 35°30' E 139°45'0 0.0
2017-May-22 10:59N 35°30' E 139°45'0 0.0
2017-May-22 10:29N 35°30' E 139°45'0 0.0
2017-May-22 09:59N 35°30' E 139°45'0 0.0
2017-May-22 09:29N 35°30' E 139°45'0 0.0
2017-May-22 08:59N 35°30' E 139°45'0 0.0
2017-May-22 08:29N 35°30' E 139°45'0 0.0
2017-May-22 07:59N 35°30' E 139°45'0 0.0
2017-May-22 07:29N 35°30' E 139°45'0 0.0
2017-May-22 06:59N 35°30' E 139°45'0 0.0
2017-May-22 06:29N 35°30' E 139°45'0 0.0
2017-May-22 05:59N 35°30' E 139°45'0 0.0
2017-May-22 04:38N 35°30' E 139°45'0 0.0
2017-May-22 04:28N 35°30' E 139°45'0 0.0
2017-May-22 03:59N 35°30' E 139°45'0 0.0
2017-May-22 03:29N 35°30' E 139°45'0 0.0
2017-May-22 02:59N 35°30' E 139°45'0 0.0
2017-May-22 02:28N 35°30' E 139°45'0 0.0
2017-May-22 01:59N 35°30' E 139°45'0 0.0
2017-May-22 01:29N 35°30' E 139°45'0 0.0
2017-May-22 00:59N 35°30' E 139°45'0 0.0
2017-May-22 00:29N 35°30' E 139°45'0 0.0
2017-May-21 23:58N 35°30' E 139°45'0 0.0
2017-May-21 23:28N 35°30' E 139°45'0 0.0
2017-May-21 22:55N 35°30' E 139°45'0 0.0
2017-May-21 22:29N 35°30' E 139°45'0 0.0
2017-May-21 21:59N 35°30' E 139°45'0 0.0
2017-May-21 21:28N 35°30' E 139°45'0 0.0
2017-May-21 20:59N 35°30' E 139°45'0 0.0
2017-May-21 20:29N 35°30' E 139°45'0 0.0
2017-May-21 19:59N 35°30' E 139°45'0 0.0
2017-May-21 19:29N 35°30' E 139°45'0 0.0
2017-May-21 18:59N 35°30' E 139°45'0 0.0
2017-May-21 18:28N 35°30' E 139°45'0 0.0
2017-May-21 17:59N 35°30' E 139°45'0 0.0
2017-May-21 17:28N 35°30' E 139°45'0 0.0
2017-May-21 16:59N 35°30' E 139°45'0 0.0
2017-May-21 16:29N 35°30' E 139°45'0 0.0
2017-May-21 15:58N 35°30' E 139°45'0 0.0
2017-May-21 15:29N 35°30' E 139°45'0 0.0
2017-May-21 14:59N 35°30' E 139°45'0 0.0
2017-May-21 14:28N 35°30' E 139°45'0 0.0
2017-May-21 13:29N 35°30' E 139°45'0 0.0
2017-May-21 12:58N 35°30' E 139°45'0 0.0
2017-May-21 12:29N 35°30' E 139°45'0 0.0
2017-May-21 11:58N 35°30' E 139°45'0 0.0
2017-May-21 11:29N 35°30' E 139°45'0 0.0
2017-May-21 10:58N 35°30' E 139°45'0 0.0
2017-May-21 10:29N 35°30' E 139°45'0 0.0
2017-May-21 09:59N 35°30' E 139°45'0 0.0
2017-May-21 09:28N 35°30' E 139°45'0 0.0
2017-May-21 08:59N 35°30' E 139°45'0 0.0
2017-May-21 08:29N 35°30' E 139°45'0 0.0
2017-May-21 07:58N 35°30' E 139°45'0 0.0
2017-May-21 07:28N 35°30' E 139°45'0 0.0
2017-May-21 06:58N 35°30' E 139°45'0 0.0
2017-May-21 06:30N 35°30' E 139°45'0 0.0
2017-May-21 06:00N 35°30' E 139°45'2 3.6
2017-May-21 05:31N 35°30' E 139°48'1 1.5
2017-May-21 05:00N 35°29' E 139°47'0 0.0
2017-May-21 04:30N 35°29' E 139°47'0 0.0
2017-May-21 04:00N 35°29' E 139°47'0 0.0
2017-May-21 03:30N 35°29' E 139°47'0 0.0
2017-May-21 03:00N 35°29' E 139°47'0 0.0
2017-May-21 02:30N 35°29' E 139°47'0 0.0
2017-May-21 02:00N 35°29' E 139°47'0 0.0
2017-May-21 01:30N 35°29' E 139°47'0 0.0
2017-May-21 01:00N 35°29' E 139°47'0 0.0
2017-May-21 00:30N 35°29' E 139°47'0 0.0
2017-May-21 00:00N 35°29' E 139°47'0 0.0
2017-May-20 23:30N 35°29' E 139°47'0 0.0
2017-May-20 23:00N 35°29' E 139°47'0 0.0
2017-May-20 22:30N 35°29' E 139°47'0 0.0
2017-May-20 22:00N 35°29' E 139°47'0 0.0
2017-May-20 21:30N 35°29' E 139°47'0 0.0
2017-May-20 21:00N 35°29' E 139°47'0 0.0
2017-May-20 20:30N 35°29' E 139°47'0 0.0
2017-May-20 20:00N 35°29' E 139°47'0 0.0
2017-May-20 19:30N 35°29' E 139°47'0 0.0
2017-May-20 19:00N 35°29' E 139°47'0 0.0
2017-May-20 18:30N 35°29' E 139°47'0 0.0
2017-May-20 18:00N 35°29' E 139°47'0 0.0
2017-May-20 17:30N 35°29' E 139°47'0 0.0
2017-May-20 17:00N 35°29' E 139°47'0 0.0
2017-May-20 16:30N 35°29' E 139°47'0 0.0
2017-May-20 16:00N 35°29' E 139°47'0 0.0
2017-May-20 15:30N 35°29' E 139°47'0 0.0
2017-May-20 15:00N 35°29' E 139°47'0 0.0
2017-May-20 14:30N 35°29' E 139°47'0 0.0
2017-May-20 13:30N 35°29' E 139°47'0 0.0
2017-May-20 13:00N 35°29' E 139°47'0 0.0
2017-May-20 12:30N 35°29' E 139°47'0 0.0
2017-May-20 12:00N 35°29' E 139°47'0 0.0
2017-May-20 11:30N 35°29' E 139°47'0 0.0
2017-May-20 11:00N 35°29' E 139°47'0 0.0
2017-May-20 10:30N 35°29' E 139°47'0 0.0
2017-May-20 10:00N 35°29' E 139°47'0 0.0
2017-May-20 09:30N 35°29' E 139°47'0 0.0
2017-May-20 09:00N 35°29' E 139°47'0 0.0
2017-May-20 08:30N 35°29' E 139°47'0 0.0
2017-May-20 08:00N 35°29' E 139°47'0 0.0
2017-May-20 07:30N 35°29' E 139°47'0 0.0
2017-May-20 07:00N 35°29' E 139°47'0 0.0
2017-May-20 06:30N 35°29' E 139°47'0 0.0
2017-May-20 06:00N 35°29' E 139°47'0 0.0
2017-May-20 05:30N 35°29' E 139°47'0 0.0
2017-May-20 05:00N 35°29' E 139°47'0 0.0
2017-May-20 04:30N 35°29' E 139°47'0 0.0
2017-May-20 04:00N 35°29' E 139°47'0 0.0
2017-May-20 03:30N 35°29' E 139°47'0 0.0
2017-May-20 03:00N 35°29' E 139°47'0 0.0
2017-May-20 02:30N 35°29' E 139°47'0 0.1
2017-May-20 01:57N 35°29' E 139°47'0 0.1
2017-May-20 01:30N 35°29' E 139°47'0 0.1
2017-May-20 01:00N 35°29' E 139°47'0 0.1
2017-May-20 00:27N 35°29' E 139°47'0 0.0
2017-May-20 00:00N 35°29' E 139°47'0 0.0
2017-May-19 23:30N 35°29' E 139°47'0 0.0
2017-May-19 23:00N 35°29' E 139°47'0 0.0
2017-May-19 22:27N 35°29' E 139°47'0 0.0
2017-May-19 22:00N 35°29' E 139°47'0 0.0
2017-May-19 21:30N 35°29' E 139°47'0 0.0
2017-May-19 21:00N 35°29' E 139°47'0 0.0
2017-May-19 20:30N 35°29' E 139°47'0 0.0
2017-May-19 20:00N 35°29' E 139°47'0 0.0
2017-May-19 19:30N 35°29' E 139°47'0 0.0
2017-May-19 19:00N 35°29' E 139°47'0 0.0
2017-May-19 18:30N 35°29' E 139°47'0 0.0
2017-May-19 18:00N 35°29' E 139°47'0 0.0
2017-May-19 17:30N 35°29' E 139°47'0 0.0
2017-May-19 17:00N 35°29' E 139°47'0 0.0
2017-May-19 16:30N 35°29' E 139°47'2 4.5
2017-May-19 16:00N 35°27' E 139°47'611.6
2017-May-19 15:30N 35°22' E 139°45'510.5
2017-May-19 15:00N 35°16' E 139°46'611.3
2017-May-19 14:30N 35°11' E 139°46'  
Track history (hours):
 
Tides and Currents Weather Stations Pressure Air Temp Water Temp Dewpoint Dewpoint Depression Visibility Wind Speed Wind Dir Waves Ship Positions

Ryoho Maru No.2

Last reported at 2017-May-24 10:19 UTC. Time now 2017-May-27 15:45 UTC.
Position N 34°52' E 139°49'.

Length 57 m; draft 4 m.

Type: Tanker. MMSI: 431001062.

Date/timePositionNaut miles runAvg speedWind from/ knotsBaromVisibWave heightAir tempDewpointWater temp
2017-May-24 10:19N 34°52' E 139°49'3 9.7
2017-May-24 09:58N 34°55' E 139°46'4 9.5
2017-May-24 09:30N 34°59' E 139°44'5 9.7
2017-May-24 09:00N 35°04' E 139°45'5 9.4
2017-May-24 08:30N 35°09' E 139°46'5 9.3
2017-May-24 08:00N 35°13' E 139°46'5 9.2
2017-May-24 07:31N 35°18' E 139°44'4 8.7
2017-May-24 07:00N 35°22' E 139°43'4 8.5
2017-May-24 06:31N 35°25' E 139°45'5 9.2
2017-May-24 06:00N 35°28' E 139°49'4 8.3
2017-May-24 05:30N 35°29' E 139°54'4 8.6
2017-May-24 05:00N 35°29' E 139°60'2 0.3
2017-May-23 22:51N 35°28' E 140°01'1 3.5
2017-May-23 22:29N 35°29' E 139°60'0 0.1
2017-May-23 21:03N 35°29' E 139°60'0 0.0
2017-May-23 20:36N 35°29' E 139°60'0 0.0
2017-May-23 20:12N 35°29' E 139°60'0 0.0
2017-May-23 19:36N 35°29' E 139°60'0 0.1
2017-May-23 19:30N 35°29' E 139°60'0 0.0
2017-May-23 18:54N 35°29' E 139°60'0 0.0
2017-May-23 18:30N 35°29' E 139°60'0 0.0
2017-May-23 17:45N 35°29' E 139°60'0 0.0
2017-May-23 17:24N 35°29' E 139°60'0 0.0
2017-May-23 16:57N 35°29' E 139°60'0 0.0
2017-May-23 16:27N 35°29' E 139°60'0 0.0
2017-May-23 15:57N 35°29' E 139°60'0 0.0
2017-May-23 15:15N 35°29' E 139°60'0 0.0
2017-May-23 15:00N 35°29' E 139°60'0 0.1
2017-May-23 14:15N 35°29' E 139°60'0 0.1
2017-May-23 13:30N 35°29' E 139°60'0 0.0
2017-May-23 13:00N 35°29' E 139°60'0 0.0
2017-May-23 12:00N 35°29' E 139°60'0 0.0
2017-May-23 10:54N 35°29' E 139°60'0 0.0
2017-May-23 09:51N 35°29' E 139°60'0 0.0
2017-May-23 09:30N 35°29' E 139°60'0 0.1
2017-May-23 08:39N 35°29' E 139°60'0 0.0
2017-May-23 08:09N 35°29' E 139°60'0 0.0
2017-May-23 07:57N 35°29' E 139°60'0 0.0
2017-May-23 07:27N 35°29' E 139°60'0 0.0
2017-May-23 06:57N 35°29' E 139°60'0 0.0
2017-May-23 05:51N 35°29' E 139°60'0 0.0
2017-May-23 05:30N 35°29' E 139°60'0 0.0
2017-May-23 04:27N 35°29' E 139°60'0 0.0
2017-May-23 03:57N 35°29' E 139°60'0 0.1
2017-May-23 03:31N 35°29' E 139°60'510.4
2017-May-23 03:01N 35°29' E 139°53'510.9
2017-May-23 02:30N 35°30' E 139°47'2 3.2
2017-May-23 01:57N 35°32' E 139°45'0 0.0
2017-May-23 01:30N 35°32' E 139°45'0 0.0
2017-May-23 01:00N 35°32' E 139°45'0 0.0
2017-May-23 00:30N 35°32' E 139°45'0 0.0
2017-May-23 00:00N 35°32' E 139°45'1 1.1
2017-May-22 23:30N 35°31' E 139°46'2 4.1
2017-May-22 23:00N 35°29' E 139°47'0 0.0
2017-May-22 22:30N 35°29' E 139°47'0 0.1
2017-May-22 22:00N 35°29' E 139°47'0 0.0
2017-May-22 21:30N 35°29' E 139°47'0 0.0
2017-May-22 20:57N 35°29' E 139°47'1 3.0
2017-May-22 20:30N 35°30' E 139°45'0 0.1
2017-May-22 19:59N 35°30' E 139°45'0 0.0
2017-May-22 19:26N 35°30' E 139°45'0 0.0
2017-May-22 18:59N 35°30' E 139°45'0 0.0
2017-May-22 18:29N 35°30' E 139°45'0 0.0
2017-May-22 17:59N 35°30' E 139°45'0 0.0
2017-May-22 17:26N 35°30' E 139°45'0 0.0
2017-May-22 16:53N 35°30' E 139°45'0 0.0
2017-May-22 16:23N 35°30' E 139°45'0 0.0
2017-May-22 15:53N 35°30' E 139°45'0 0.0
2017-May-22 15:29N 35°30' E 139°45'0 0.0
2017-May-22 14:59N 35°30' E 139°45'0 0.0
2017-May-22 13:59N 35°30' E 139°45'0 0.0
2017-May-22 13:26N 35°30' E 139°45'0 0.0
2017-May-22 12:59N 35°30' E 139°45'0 0.0
2017-May-22 12:29N 35°30' E 139°45'0 0.0
2017-May-22 11:59N 35°30' E 139°45'0 0.0
2017-May-22 11:29N 35°30' E 139°45'0 0.0
2017-May-22 10:59N 35°30' E 139°45'0 0.0
2017-May-22 10:29N 35°30' E 139°45'0 0.0
2017-May-22 09:59N 35°30' E 139°45'0 0.0
2017-May-22 09:29N 35°30' E 139°45'0 0.0
2017-May-22 08:59N 35°30' E 139°45'0 0.0
2017-May-22 08:29N 35°30' E 139°45'0 0.0
2017-May-22 07:59N 35°30' E 139°45'0 0.0
2017-May-22 07:29N 35°30' E 139°45'0 0.0
2017-May-22 06:59N 35°30' E 139°45'0 0.0
2017-May-22 06:29N 35°30' E 139°45'0 0.0
2017-May-22 05:59N 35°30' E 139°45'0 0.0
2017-May-22 04:38N 35°30' E 139°45'0 0.0
2017-May-22 04:28N 35°30' E 139°45'0 0.0
2017-May-22 03:59N 35°30' E 139°45'0 0.0
2017-May-22 03:29N 35°30' E 139°45'0 0.0
2017-May-22 02:59N 35°30' E 139°45'0 0.0
2017-May-22 02:28N 35°30' E 139°45'0 0.0
2017-May-22 01:59N 35°30' E 139°45'0 0.0
2017-May-22 01:29N 35°30' E 139°45'0 0.0
2017-May-22 00:59N 35°30' E 139°45'0 0.0
2017-May-22 00:29N 35°30' E 139°45'0 0.0
2017-May-21 23:58N 35°30' E 139°45'0 0.0
2017-May-21 23:28N 35°30' E 139°45'0 0.0
2017-May-21 22:55N 35°30' E 139°45'0 0.0
2017-May-21 22:29N 35°30' E 139°45'0 0.0
2017-May-21 21:59N 35°30' E 139°45'0 0.0
2017-May-21 21:28N 35°30' E 139°45'0 0.0
2017-May-21 20:59N 35°30' E 139°45'0 0.0
2017-May-21 20:29N 35°30' E 139°45'0 0.0
2017-May-21 19:59N 35°30' E 139°45'0 0.0
2017-May-21 19:29N 35°30' E 139°45'0 0.0
2017-May-21 18:59N 35°30' E 139°45'0 0.0
2017-May-21 18:28N 35°30' E 139°45'0 0.0
2017-May-21 17:59N 35°30' E 139°45'0 0.0
2017-May-21 17:28N 35°30' E 139°45'0 0.0
2017-May-21 16:59N 35°30' E 139°45'0 0.0
2017-May-21 16:29N 35°30' E 139°45'0 0.0
2017-May-21 15:58N 35°30' E 139°45'0 0.0
2017-May-21 15:29N 35°30' E 139°45'0 0.0
2017-May-21 14:59N 35°30' E 139°45'0 0.0
2017-May-21 14:28N 35°30' E 139°45'0 0.0
2017-May-21 13:29N 35°30' E 139°45'0 0.0
2017-May-21 12:58N 35°30' E 139°45'0 0.0
2017-May-21 12:29N 35°30' E 139°45'0 0.0
2017-May-21 11:58N 35°30' E 139°45'0 0.0
2017-May-21 11:29N 35°30' E 139°45'0 0.0
2017-May-21 10:58N 35°30' E 139°45'0 0.0
2017-May-21 10:29N 35°30' E 139°45'0 0.0
2017-May-21 09:59N 35°30' E 139°45'0 0.0
2017-May-21 09:28N 35°30' E 139°45'0 0.0
2017-May-21 08:59N 35°30' E 139°45'0 0.0
2017-May-21 08:29N 35°30' E 139°45'0 0.0
2017-May-21 07:58N 35°30' E 139°45'0 0.0
2017-May-21 07:28N 35°30' E 139°45'0 0.0
2017-May-21 06:58N 35°30' E 139°45'0 0.0
2017-May-21 06:30N 35°30' E 139°45'0 0.0
2017-May-21 06:00N 35°30' E 139°45'2 3.6
2017-May-21 05:31N 35°30' E 139°48'1 1.5
2017-May-21 05:00N 35°29' E 139°47'0 0.0
2017-May-21 04:30N 35°29' E 139°47'0 0.0
2017-May-21 04:00N 35°29' E 139°47'0 0.0
2017-May-21 03:30N 35°29' E 139°47'0 0.0
2017-May-21 03:00N 35°29' E 139°47'0 0.0
2017-May-21 02:30N 35°29' E 139°47'0 0.0
2017-May-21 02:00N 35°29' E 139°47'0 0.0
2017-May-21 01:30N 35°29' E 139°47'0 0.0
2017-May-21 01:00N 35°29' E 139°47'0 0.0
2017-May-21 00:30N 35°29' E 139°47'0 0.0
2017-May-21 00:00N 35°29' E 139°47'0 0.0
2017-May-20 23:30N 35°29' E 139°47'0 0.0
2017-May-20 23:00N 35°29' E 139°47'0 0.0
2017-May-20 22:30N 35°29' E 139°47'0 0.0
2017-May-20 22:00N 35°29' E 139°47'0 0.0
2017-May-20 21:30N 35°29' E 139°47'0 0.0
2017-May-20 21:00N 35°29' E 139°47'0 0.0
2017-May-20 20:30N 35°29' E 139°47'0 0.0
2017-May-20 20:00N 35°29' E 139°47'0 0.0
2017-May-20 19:30N 35°29' E 139°47'0 0.0
2017-May-20 19:00N 35°29' E 139°47'0 0.0
2017-May-20 18:30N 35°29' E 139°47'0 0.0
2017-May-20 18:00N 35°29' E 139°47'0 0.0
2017-May-20 17:30N 35°29' E 139°47'0 0.0
2017-May-20 17:00N 35°29' E 139°47'0 0.0
2017-May-20 16:30N 35°29' E 139°47'0 0.0
2017-May-20 16:00N 35°29' E 139°47'0 0.0
2017-May-20 15:30N 35°29' E 139°47'0 0.0
2017-May-20 15:00N 35°29' E 139°47'0 0.0
2017-May-20 14:30N 35°29' E 139°47'0 0.0
2017-May-20 13:30N 35°29' E 139°47'0 0.0
2017-May-20 13:00N 35°29' E 139°47'0 0.0
2017-May-20 12:30N 35°29' E 139°47'0 0.0
2017-May-20 12:00N 35°29' E 139°47'0 0.0
2017-May-20 11:30N 35°29' E 139°47'0 0.0
2017-May-20 11:00N 35°29' E 139°47'0 0.0
2017-May-20 10:30N 35°29' E 139°47'0 0.0
2017-May-20 10:00N 35°29' E 139°47'0 0.0
2017-May-20 09:30N 35°29' E 139°47'0 0.0
2017-May-20 09:00N 35°29' E 139°47'0 0.0
2017-May-20 08:30N 35°29' E 139°47'0 0.0
2017-May-20 08:00N 35°29' E 139°47'0 0.0
2017-May-20 07:30N 35°29' E 139°47'0 0.0
2017-May-20 07:00N 35°29' E 139°47'0 0.0
2017-May-20 06:30N 35°29' E 139°47'0 0.0
2017-May-20 06:00N 35°29' E 139°47'0 0.0
2017-May-20 05:30N 35°29' E 139°47'0 0.0
2017-May-20 05:00N 35°29' E 139°47'0 0.0
2017-May-20 04:30N 35°29' E 139°47'0 0.0
2017-May-20 04:00N 35°29' E 139°47'0 0.0
2017-May-20 03:30N 35°29' E 139°47'0 0.0
2017-May-20 03:00N 35°29' E 139°47'0 0.0
2017-May-20 02:30N 35°29' E 139°47'0 0.1
2017-May-20 01:57N 35°29' E 139°47'0 0.1
2017-May-20 01:30N 35°29' E 139°47'0 0.1
2017-May-20 01:00N 35°29' E 139°47'0 0.1
2017-May-20 00:27N 35°29' E 139°47'0 0.0
2017-May-20 00:00N 35°29' E 139°47'0 0.0
2017-May-19 23:30N 35°29' E 139°47'0 0.0
2017-May-19 23:00N 35°29' E 139°47'0 0.0
2017-May-19 22:27N 35°29' E 139°47'0 0.0
2017-May-19 22:00N 35°29' E 139°47'0 0.0
2017-May-19 21:30N 35°29' E 139°47'0 0.0
2017-May-19 21:00N 35°29' E 139°47'0 0.0
2017-May-19 20:30N 35°29' E 139°47'0 0.0
2017-May-19 20:00N 35°29' E 139°47'0 0.0
2017-May-19 19:30N 35°29' E 139°47'0 0.0
2017-May-19 19:00N 35°29' E 139°47'0 0.0
2017-May-19 18:30N 35°29' E 139°47'0 0.0
2017-May-19 18:00N 35°29' E 139°47'0 0.0
2017-May-19 17:30N 35°29' E 139°47'0 0.0
2017-May-19 17:00N 35°29' E 139°47'0 0.0
2017-May-19 16:30N 35°29' E 139°47'2 4.5
2017-May-19 16:00N 35°27' E 139°47'611.6
2017-May-19 15:30N 35°22' E 139°45'510.5
2017-May-19 15:00N 35°16' E 139°46'611.3
2017-May-19 14:30N 35°11' E 139°46'  

Dump ship's entire track history